Deering, MO (63840)

5:08 AM CST on February 12, 2016 (GMT -0600)
N0RXS WX | | Change Station
CLOSE
Current Station
Personal Weather Station
Location: Kennett, MO
Elevation: 262 ft
Nearby Weather Stations
Active Advisory: Flood Advisory

Elev 262 ft 36.22 °N, 90.05 °W | Updated 9 seconds ago

Overcast
Overcast
29.8 °F
Feels Like 30 °F
N
0.0
Wind Variable Wind from NNE
Gusts 0.0 mph

Today
High -- | Low -- °F
--% Chance of Precip.
Yesterday
High -- | Low -- °F
Precip. -- in
Pressure 30.20 in
Visibility 10.0 miles
Clouds Few 11000 ft
Windchill 30 °F
Dew Point 25 °F
Humidity 82%
Rainfall 0.00 in
Snow Depth Not available.
6:50 AM 5:37 PM
Waxing Crescent, 19% visible
METAR KHKA 121053Z AUTO 04005KT 10SM FEW110 01/M03 A3020 RMK AO2 SLP226 T00061033
Pressure 30.20 in
Visibility 10.0 miles
Clouds Few 11000 ft
Windchill 30 °F
Dew Point 25 °F
Humidity 82%
Rainfall 0.00 in
Snow Depth Not available.
6:50 AM 5:37 PM
Waxing Crescent, 19% visible
METAR KHKA 121053Z AUTO 04005KT 10SM FEW110 01/M03 A3020 RMK AO2 SLP226 T00061033

10-Day Weather Forecast

Almanac

Astronomy

Feb. 12, 2016 Rise Set
Actual Time
Civil Twilight
Nautical Twilight
Astronomical Twilight
Moon
Length of Visible Light
Length of Day
Tomorrow will be .
, % of the Moon is Illuminated

Today's Extremes

State Highs State Lows

Community

WunderPhotos

Upload Photos

1,892,289 photos uploaded!

WunderBlog® & News

Nearby

Air Quality

  Air Quality AQ Index Pollutant
Not available.

Snow Depth

Station Depth Elevation

Earthquake Activity

City Distance Mag. Time & Date
Minimum magnitude displayed is 2.5.

Coastal Water Temperatures

Place Temperature

Stations

Nearby Weather Stations

Station Location Temp. Windchill Dew Point Humidity Wind Precip. Elev Updated Type
                   

Watches & Warnings

Flood Advisory
Issued: 9:30 PM CST Feb. 11, 2016 – National Weather Service

The Flood Advisory continues for
the Mississippi River at Caruthersville
* until Saturday February 13.
* At 09 PM Thursday the stage was 28.9 feet.
* Flood stage is 32.0 feet.
* Forecast... the river will rise to near 29.0 feet Friday February
12.
* At 29.0 feet... in Tennessee, shipping operation south of Heloise is
being flooded. Chisholm Lake Road is flooded south of cocklebur
Slough. Overbank flooding begins on low lying farmland along both
banks of the Mississippi River and the Obion river in northwest
Tennessee. Old Forked Deer river bed is beginning to flood fields
in the Hales Point area south of Suggs Road. In Arkansas, roads
inside the levee south of Caruthersville, Missouri are beginning to
flood.


Lat... Lon 3623 8977 3623 8948 3606 8950 3595 8948
      3582 8956 3582 8985